createdAt,value
2019-02-24T00:04:57.275Z,1.33
2019-02-24T00:10:06.346Z,1.46
2019-02-24T00:15:15.336Z,1.60
2019-02-24T00:20:24.370Z,1.54
2019-02-24T00:25:33.745Z,1.68
2019-02-24T00:30:42.814Z,1.48
2019-02-24T00:35:51.799Z,1.71
2019-02-24T00:41:00.890Z,1.82
2019-02-24T00:46:09.874Z,1.75
2019-02-24T00:51:18.973Z,2.26
2019-02-24T00:56:27.978Z,1.65
2019-02-24T01:01:37.146Z,1.76
2019-02-24T01:06:46.099Z,1.47
2019-02-24T01:11:55.131Z,1.63
2019-02-24T01:17:04.125Z,1.65
2019-02-24T01:22:13.145Z,1.67
2019-02-24T01:27:22.146Z,1.48
2019-02-24T01:32:31.300Z,1.63
2019-02-24T01:37:40.225Z,1.85
2019-02-24T01:42:49.269Z,1.70
2019-02-24T01:47:58.206Z,1.76
2019-02-24T01:53:07.242Z,1.54
2019-02-24T01:58:18.243Z,1.87
2019-02-24T02:03:17.426Z,1.32
2019-02-24T02:08:26.404Z,1.43
2019-02-24T02:13:35.438Z,1.59
2019-02-24T02:18:44.369Z,2.03
2019-02-24T02:23:53.447Z,1.76
2019-02-24T02:29:02.658Z,1.49
2019-02-24T02:34:11.874Z,1.49
2019-02-24T02:39:20.854Z,1.38
2019-02-24T02:44:30.017Z,1.53
2019-02-24T02:49:39.003Z,1.50
2019-02-24T02:54:48.023Z,1.56
2019-02-24T02:59:56.986Z,1.68
2019-02-24T03:05:06.990Z,1.19
2019-02-24T03:10:05.867Z,1.40
2019-02-24T03:15:14.879Z,1.46
2019-02-24T03:20:23.875Z,1.27
2019-02-24T03:25:32.905Z,1.19
2019-02-24T03:30:41.819Z,1.25
2019-02-24T03:35:50.871Z,1.34
2019-02-24T03:40:59.866Z,1.47
2019-02-24T03:46:08.910Z,1.33
2019-02-24T03:51:17.891Z,1.16
2019-02-24T03:56:26.874Z,1.16
2019-02-24T04:01:35.854Z,1.04
2019-02-24T04:06:45.031Z,1.51
2019-02-24T04:11:54.018Z,1.57
2019-02-24T04:17:03.083Z,1.21
2019-02-24T04:22:12.041Z,1.21
2019-02-24T04:27:21.138Z,1.32
2019-02-24T04:32:30.085Z,1.25
2019-02-24T04:37:39.183Z,1.43
2019-02-24T04:42:48.125Z,1.02
2019-02-24T04:47:57.314Z,1.19
2019-02-24T04:53:06.448Z,0.98
2019-02-24T04:58:15.507Z,1.16
2019-02-24T05:03:24.449Z,0.96
2019-02-24T05:08:33.509Z,0.93
2019-02-24T05:13:42.506Z,1.02
2019-02-24T05:18:51.523Z,1.11
2019-02-24T05:25:26.036Z,1.60
2019-02-24T05:30:25.131Z,1.91
2019-02-24T05:35:34.742Z,1.23
2019-02-24T05:40:43.843Z,1.70
2019-02-24T05:45:52.874Z,1.29
2019-02-24T05:51:02.052Z,1.47
2019-02-24T05:56:11.219Z,1.38
2019-02-24T06:01:20.410Z,1.45
2019-02-24T06:06:29.472Z,1.60
2019-02-24T06:11:39.010Z,1.42
2019-02-24T06:16:48.079Z,1.33
2019-02-24T06:21:57.281Z,1.26
2019-02-24T06:27:06.437Z,1.67
2019-02-24T06:32:15.838Z,1.83
2019-02-24T06:37:24.850Z,1.14
2019-02-24T06:42:34.061Z,1.67
2019-02-24T06:47:43.153Z,1.53
2019-02-24T06:52:52.256Z,1.13
2019-02-24T06:58:01.274Z,1.37
2019-02-24T07:03:10.385Z,1.34
2019-02-24T07:08:19.643Z,1.36
2019-02-24T07:13:28.814Z,1.32
2019-02-24T07:18:37.841Z,1.33
2019-02-24T07:23:47.005Z,1.61
2019-02-24T07:28:56.044Z,1.18
2019-02-24T07:34:05.089Z,1.45
2019-02-24T07:39:14.106Z,1.36
2019-02-24T07:44:23.345Z,1.41
2019-02-24T07:49:32.431Z,1.28
2019-02-24T07:54:41.545Z,1.28
2019-02-24T07:59:50.585Z,1.16
2019-02-24T08:04:59.779Z,1.07
2019-02-24T08:10:08.834Z,1.15
2019-02-24T08:15:18.048Z,1.10
2019-02-24T08:20:27.124Z,0.95
2019-02-24T08:25:36.362Z,1.06
2019-02-24T08:30:45.385Z,1.37
2019-02-24T08:35:54.442Z,1.43
2019-02-24T08:41:03.451Z,1.18
2019-02-24T08:46:12.562Z,1.26
2019-02-24T08:51:23.310Z,1.16
2019-02-24T08:56:30.295Z,1.37
2019-02-24T09:01:39.369Z,1.01
2019-02-24T09:06:48.501Z,1.12
2019-02-24T09:11:57.721Z,1.04
2019-02-24T09:17:06.774Z,0.91
2019-02-24T09:22:15.775Z,0.94
2019-02-24T09:27:24.879Z,1.22
2019-02-24T09:32:33.930Z,0.96
2019-02-24T09:37:43.099Z,1.06
2019-02-24T09:42:52.129Z,1.10
2019-02-24T09:48:01.304Z,1.14
2019-02-24T09:53:10.846Z,1.04
2019-02-24T09:58:20.145Z,1.11
2019-02-24T10:03:29.225Z,0.83
2019-02-24T10:08:38.329Z,1.21
2019-02-24T10:13:47.365Z,1.04
2019-02-24T10:18:56.541Z,0.98
2019-02-24T10:24:05.609Z,0.96
2019-02-24T10:29:14.813Z,0.92
2019-02-24T10:34:23.874Z,0.92
2019-02-24T10:39:32.973Z,0.80
2019-02-24T10:44:42.017Z,0.74
2019-02-24T10:49:51.157Z,0.59
2019-02-24T10:55:00.298Z,0.77
2019-02-24T11:00:09.318Z,0.58
2019-02-24T11:05:18.362Z,0.78
2019-02-24T11:10:27.521Z,0.64
2019-02-24T11:15:35.084Z,0.83
2019-02-24T11:20:44.250Z,0.50
2019-02-24T11:25:53.358Z,0.56
2019-02-24T11:31:02.492Z,0.58
2019-02-24T11:36:11.492Z,0.75
2019-02-24T11:41:20.625Z,0.58
2019-02-24T11:46:29.701Z,0.70
2019-02-24T11:51:38.969Z,0.58
2019-02-24T11:56:48.029Z,0.69
2019-02-24T12:01:57.162Z,0.46
2019-02-24T12:07:06.247Z,0.61
2019-02-24T12:12:15.374Z,0.65
2019-02-24T12:17:24.485Z,0.51
2019-02-24T12:22:33.593Z,0.57
2019-02-24T12:27:42.629Z,0.50
2019-02-24T12:32:51.741Z,0.63
2019-02-24T12:38:00.801Z,0.48
2019-02-24T12:43:10.088Z,0.58
2019-02-24T12:48:19.156Z,0.52
2019-02-24T12:53:28.462Z,0.59
2019-02-24T12:58:37.503Z,0.35
2019-02-24T13:03:46.622Z,0.56
2019-02-24T13:08:55.658Z,0.40
2019-02-24T13:14:04.966Z,0.64
2019-02-24T13:19:14.037Z,0.47
2019-02-24T13:24:23.241Z,0.36
2019-02-24T13:29:32.291Z,0.58
2019-02-24T13:34:41.877Z,0.48
2019-02-24T13:39:50.923Z,0.53
2019-02-24T13:45:00.039Z,0.45
2019-02-24T13:50:09.093Z,0.41
2019-02-24T13:55:18.287Z,0.41
2019-02-24T14:00:27.435Z,0.48
2019-02-24T14:05:36.582Z,0.41
2019-02-24T14:10:45.607Z,0.41
2019-02-24T14:15:54.717Z,0.30
2019-02-24T14:21:03.761Z,0.36
2019-02-24T14:26:12.969Z,0.38
2019-02-24T14:31:23.071Z,0.37
2019-02-24T14:36:22.174Z,0.41
2019-02-24T14:41:31.413Z,0.39
2019-02-24T14:46:40.865Z,0.48
2019-02-24T14:51:49.910Z,0.37
2019-02-24T14:56:59.037Z,0.42
2019-02-24T15:02:08.110Z,0.42
2019-02-24T15:07:17.244Z,0.43
2019-02-24T15:12:26.324Z,0.45
2019-02-24T15:17:35.525Z,0.38
2019-02-24T15:22:44.574Z,0.44
2019-02-24T15:27:53.782Z,0.37
2019-02-24T15:33:02.783Z,0.36
2019-02-24T15:38:11.857Z,0.34
2019-02-24T15:43:20.946Z,0.30
2019-02-24T15:48:30.097Z,0.34
2019-02-24T15:53:39.181Z,0.34
2019-02-24T15:58:48.321Z,0.38
2019-02-24T16:03:57.349Z,0.35
2019-02-24T16:09:06.756Z,0.29
2019-02-24T16:14:15.785Z,0.38
2019-02-24T16:19:24.899Z,0.35
2019-02-24T16:24:33.942Z,0.46
2019-02-24T16:29:43.449Z,0.35
2019-02-24T16:34:52.621Z,0.42
2019-02-24T16:40:01.748Z,0.41
2019-02-24T16:45:10.818Z,0.42
2019-02-24T16:50:19.953Z,0.33
2019-02-24T16:55:28.994Z,0.38
2019-02-24T17:00:38.126Z,0.43
2019-02-24T17:05:47.194Z,0.40
2019-02-24T17:10:56.356Z,0.44
2019-02-24T17:16:05.597Z,0.41
2019-02-24T17:21:15.008Z,0.38
2019-02-24T17:26:24.033Z,0.35
2019-02-24T17:31:33.146Z,0.44
2019-02-24T17:36:42.204Z,0.40
2019-02-24T17:41:51.349Z,0.57
2019-02-24T17:47:00.409Z,0.38
2019-02-24T17:52:09.573Z,0.31
2019-02-24T17:57:18.646Z,0.37
2019-02-24T18:02:27.791Z,0.42
2019-02-24T18:07:36.846Z,0.56
2019-02-24T18:12:46.102Z,0.41
2019-02-24T18:17:55.129Z,0.58
2019-02-24T18:23:04.237Z,0.54
2019-02-24T18:28:13.297Z,0.49
2019-02-24T18:33:22.529Z,0.44
2019-02-24T18:38:31.737Z,0.51
2019-02-24T18:43:41.053Z,0.46
2019-02-24T18:48:50.147Z,0.57
2019-02-24T18:53:59.259Z,0.64
2019-02-24T18:59:08.297Z,0.76
2019-02-24T19:04:17.363Z,0.93
2019-02-24T19:09:26.429Z,0.64
2019-02-24T19:14:35.641Z,0.73
2019-02-24T19:19:44.714Z,0.78
2019-02-24T19:24:53.925Z,0.88
2019-02-24T19:30:03.011Z,0.61
2019-02-24T19:35:12.183Z,0.71
2019-02-24T19:40:21.244Z,0.82
2019-02-24T19:45:30.454Z,0.78
2019-02-24T19:50:39.486Z,0.87
2019-02-24T19:55:48.643Z,0.73
2019-02-24T20:00:57.648Z,0.84
2019-02-24T20:06:06.785Z,0.64
2019-02-24T20:11:14.365Z,0.97
2019-02-24T20:16:23.607Z,0.66
2019-02-24T20:21:32.667Z,0.67
2019-02-24T20:26:41.869Z,0.61
2019-02-24T20:31:50.893Z,0.68
2019-02-24T20:37:00.006Z,0.71
2019-02-24T20:42:09.049Z,0.67
2019-02-24T20:47:18.266Z,0.66
2019-02-24T20:52:27.285Z,0.79
2019-02-24T20:57:36.365Z,0.79
2019-02-24T21:02:45.442Z,0.72
2019-02-24T21:07:54.635Z,0.61
2019-02-24T21:13:03.776Z,0.64
2019-02-24T21:18:12.874Z,0.55
2019-02-24T21:23:21.895Z,0.58
2019-02-24T21:28:31.025Z,0.47
2019-02-24T21:33:40.083Z,0.63
2019-02-24T21:38:49.372Z,0.62
2019-02-24T21:43:58.430Z,0.67
2019-02-24T21:49:07.541Z,0.74
2019-02-24T21:54:16.536Z,0.45
2019-02-24T21:59:25.661Z,0.60
2019-02-24T22:04:34.814Z,0.83
2019-02-24T22:09:43.947Z,0.66
2019-02-24T22:14:52.954Z,0.87
2019-02-24T22:20:02.077Z,0.81
2019-02-24T22:25:11.101Z,0.82
2019-02-24T22:30:20.218Z,0.97
2019-02-24T22:35:29.245Z,1.24
2019-02-24T22:40:38.406Z,0.84
2019-02-24T22:45:47.485Z,0.98
2019-02-24T22:50:56.624Z,1.04
2019-02-24T22:56:08.442Z,0.97
2019-02-24T23:01:07.571Z,1.01
2019-02-24T23:06:16.105Z,0.87
2019-02-24T23:11:25.201Z,0.82
2019-02-24T23:16:34.246Z,1.00
2019-02-24T23:21:43.382Z,1.14
2019-02-24T23:26:52.445Z,0.91
2019-02-24T23:32:01.610Z,0.94
2019-02-24T23:37:10.618Z,0.91
2019-02-24T23:42:19.800Z,1.10
2019-02-24T23:47:28.866Z,0.95
2019-02-24T23:52:38.063Z,0.95
2019-02-24T23:57:47.097Z,0.86
